createdAt,value
2022-11-07T00:00:29.912Z,6.97
2022-11-07T00:02:58.352Z,8.05
2022-11-07T00:05:26.764Z,8.65
2022-11-07T00:07:55.967Z,6.93
2022-11-07T00:10:26.066Z,7.85
2022-11-07T00:12:54.865Z,9.90
2022-11-07T00:15:24.031Z,9.64
2022-11-07T00:17:51.989Z,8.73
2022-11-07T00:20:22.012Z,9.84
2022-11-07T00:22:50.295Z,9.84
2022-11-07T00:25:18.936Z,8.83
2022-11-07T00:27:48.599Z,9.81
2022-11-07T00:30:17.349Z,9.71
2022-11-07T00:32:45.994Z,8.26
2022-11-07T00:35:14.615Z,7.58
2022-11-07T00:37:43.346Z,8.88
2022-11-07T00:40:12.153Z,7.29
2022-11-07T00:42:41.356Z,9.04
2022-11-07T00:45:13.474Z,9.07
2022-11-07T00:47:41.760Z,9.01
2022-11-07T00:50:10.708Z,9.63
2022-11-07T00:52:39.381Z,9.63
2022-11-07T00:55:08.627Z,9.61
2022-11-07T00:57:37.596Z,9.59
2022-11-07T01:00:26.734Z,9.55
2022-11-07T01:03:17.717Z,7.87
2022-11-07T01:05:57.100Z,8.92
2022-11-07T01:08:25.925Z,7.82
2022-11-07T01:10:54.626Z,8.61
2022-11-07T01:13:23.462Z,8.88
2022-11-07T01:15:53.797Z,8.12
2022-11-07T01:18:22.590Z,9.49
2022-11-07T01:20:51.480Z,9.46
2022-11-07T01:23:20.061Z,9.45
2022-11-07T01:25:47.980Z,8.45
2022-11-07T05:00:10.624Z,7.11
2022-11-07T05:20:59.959Z,7.05
2022-11-07T05:28:56.295Z,7.24
2022-11-07T05:40:14.352Z,7.28
2022-11-07T05:54:52.480Z,7.38
2022-11-07T06:11:25.998Z,7.51
2022-11-07T06:16:37.502Z,7.27
2022-11-07T06:19:05.412Z,7.60
2022-11-07T06:21:33.230Z,7.65
2022-11-07T06:24:00.962Z,7.68
2022-11-07T06:26:30.103Z,7.37
2022-11-07T09:17:32.984Z,12.21
2022-11-07T09:20:02.026Z,14.95
2022-11-07T09:22:29.867Z,14.42
2022-11-07T09:24:57.881Z,13.61
2022-11-07T09:27:25.988Z,14.87
2022-11-07T09:29:53.894Z,15.53
2022-11-07T09:32:43.407Z,15.97
2022-11-07T09:35:11.793Z,15.12
2022-11-07T09:37:40.031Z,16.19
2022-11-07T09:40:23.267Z,16.31
2022-11-07T09:43:02.727Z,16.29
2022-11-07T09:45:32.135Z,14.19
2022-11-07T09:48:06.921Z,14.89
2022-11-07T09:50:41.546Z,15.83
2022-11-07T09:53:18.114Z,14.38
2022-11-07T09:55:52.383Z,15.07
2022-11-07T09:58:26.914Z,13.92
2022-11-07T10:00:58.484Z,13.86
2022-11-07T10:03:26.487Z,14.26
2022-11-07T10:06:04.091Z,14.09
2022-11-07T10:08:40.021Z,15.60
2022-11-07T10:11:14.667Z,16.04
2022-11-07T10:14:00.192Z,15.29
2022-11-07T10:16:40.217Z,15.67
2022-11-07T10:19:21.079Z,16.08
2022-11-07T10:22:08.354Z,15.86
2022-11-07T10:24:55.139Z,16.65
2022-11-07T10:27:23.484Z,15.83
2022-11-07T10:29:54.643Z,16.15
2022-11-07T10:32:27.172Z,14.92
2022-11-07T10:35:07.222Z,15.79
2022-11-07T10:37:36.518Z,15.60
2022-11-07T10:40:15.696Z,15.07
2022-11-07T10:42:45.598Z,14.33
2022-11-07T10:45:15.557Z,15.01
2022-11-07T10:47:44.413Z,17.85
2022-11-07T10:50:20.266Z,15.83
2022-11-07T10:52:55.418Z,16.08
2022-11-07T10:55:24.930Z,19.05
2022-11-07T10:57:57.355Z,18.77
2022-11-07T11:00:34.610Z,19.15
2022-11-07T11:03:02.922Z,17.91
2022-11-07T11:05:43.409Z,18.67
2022-11-07T11:08:18.345Z,17.94
2022-11-07T11:10:47.131Z,18.62
2022-11-07T11:13:28.470Z,18.26
2022-11-07T11:16:04.277Z,19.35
2022-11-07T11:18:33.912Z,18.72
2022-11-07T11:21:03.692Z,19.06
2022-11-07T11:23:42.018Z,18.11
2022-11-07T11:26:26.544Z,20.67
2022-11-07T11:29:04.586Z,21.26
2022-11-07T11:31:40.597Z,19.17
2022-11-07T11:34:14.743Z,19.11
2022-11-07T11:36:51.696Z,20.15
2022-11-07T11:39:30.395Z,22.11
2022-11-07T11:42:00.241Z,22.88
2022-11-07T11:44:36.229Z,22.33
2022-11-07T11:47:12.425Z,23.00
2022-11-07T11:49:44.901Z,23.77
2022-11-07T11:52:17.239Z,23.59
2022-11-07T11:54:47.355Z,23.57
2022-11-07T11:57:19.769Z,22.75
2022-11-07T12:00:02.436Z,22.07
2022-11-07T12:02:50.010Z,21.23
2022-11-07T12:05:30.578Z,20.59
2022-11-07T12:08:12.442Z,20.00
2022-11-07T12:10:48.821Z,19.45
2022-11-07T12:13:24.076Z,19.05
2022-11-07T12:16:04.687Z,18.50
2022-11-07T12:18:39.714Z,18.25
2022-11-07T12:21:23.712Z,18.18
2022-11-07T12:24:04.323Z,17.92
2022-11-07T12:26:41.304Z,17.96
2022-11-07T12:29:35.410Z,17.81
2022-11-07T12:32:13.872Z,17.35
2022-11-07T12:35:01.349Z,17.58
2022-11-07T12:37:43.638Z,15.20
2022-11-07T12:40:26.502Z,16.10
2022-11-07T12:43:07.097Z,17.72
2022-11-07T12:45:46.927Z,15.78
2022-11-07T12:48:48.524Z,17.23
2022-11-07T12:51:27.849Z,18.29
2022-11-07T12:54:03.796Z,18.14
2022-11-07T12:56:34.443Z,18.33
2022-11-07T12:59:11.544Z,18.38
2022-11-07T13:01:45.160Z,17.92
2022-11-07T13:04:20.619Z,17.73
2022-11-07T13:06:54.914Z,17.94
2022-11-07T13:09:30.467Z,17.70
2022-11-07T13:12:09.735Z,17.24
2022-11-07T13:14:43.453Z,17.79
2022-11-07T13:17:18.198Z,17.76
2022-11-07T13:19:59.646Z,17.84
2022-11-07T13:22:34.484Z,17.74
2022-11-07T13:25:24.301Z,17.59
2022-11-07T13:28:08.215Z,17.48
2022-11-07T13:30:39.937Z,17.42
2022-11-07T13:33:23.902Z,17.31
2022-11-07T13:35:55.317Z,17.22
2022-11-07T13:38:25.349Z,15.40
2022-11-07T13:40:58.441Z,17.03
2022-11-07T13:43:28.576Z,16.93
2022-11-07T13:45:59.996Z,15.16
2022-11-07T13:48:32.373Z,14.50
2022-11-07T13:51:06.488Z,14.20
2022-11-07T13:53:40.060Z,16.68
2022-11-07T13:56:17.330Z,16.40
2022-11-07T13:58:47.164Z,14.90
2022-11-07T14:04:24.384Z,14.66
2022-11-07T14:09:36.218Z,16.27
2022-11-07T14:12:04.466Z,16.39
2022-11-07T14:14:32.449Z,13.59
2022-11-07T14:17:02.007Z,15.07
2022-11-07T14:19:44.089Z,16.27
2022-11-07T14:22:24.400Z,15.97
2022-11-07T14:24:54.208Z,14.09
2022-11-07T14:27:24.896Z,15.04
2022-11-07T14:29:53.832Z,16.15
2022-11-07T14:32:22.737Z,15.12
2022-11-07T14:34:54.873Z,16.00
2022-11-07T14:37:24.692Z,15.18
2022-11-07T14:39:53.620Z,15.87
2022-11-07T14:42:24.055Z,15.80
2022-11-07T14:44:55.998Z,15.43
2022-11-07T14:47:28.342Z,15.63
2022-11-07T14:49:59.133Z,14.75
2022-11-07T14:52:33.823Z,14.78
2022-11-07T14:55:08.036Z,15.55
2022-11-07T14:57:38.471Z,15.19
2022-11-07T15:00:07.405Z,15.45
2022-11-07T15:02:36.060Z,15.24
2022-11-07T15:05:10.969Z,15.38
2022-11-07T15:07:49.829Z,15.21
2022-11-07T15:10:28.125Z,15.09
2022-11-07T15:12:58.438Z,15.01
2022-11-07T15:15:28.336Z,14.54
2022-11-07T15:18:00.173Z,15.00
2022-11-07T15:23:35.343Z,14.58
2022-11-07T15:26:12.445Z,12.35
2022-11-07T15:29:15.393Z,15.05
2022-11-07T15:31:48.708Z,12.74
2022-11-07T15:34:33.641Z,13.61
2022-11-07T15:37:12.121Z,13.47
2022-11-07T15:39:41.757Z,13.68
2022-11-07T15:42:09.845Z,13.31
2022-11-07T15:44:38.326Z,14.32
2022-11-07T15:47:07.387Z,11.68
2022-11-07T15:49:36.042Z,14.53
2022-11-07T15:52:04.060Z,13.99
2022-11-07T15:54:32.272Z,12.98
2022-11-07T15:57:05.496Z,11.73
2022-11-07T15:59:36.872Z,14.61
2022-11-07T16:02:05.730Z,14.58
2022-11-07T16:04:39.307Z,14.15
2022-11-07T16:07:12.759Z,14.45
2022-11-07T16:09:40.742Z,14.46
2022-11-07T16:12:14.991Z,13.37
2022-11-07T16:14:44.637Z,14.51
2022-11-07T16:17:14.395Z,14.04
2022-11-07T16:19:42.681Z,12.42
2022-11-07T16:22:11.530Z,14.41
2022-11-07T16:24:39.549Z,14.40
2022-11-07T16:27:08.205Z,13.33
2022-11-07T16:29:44.402Z,12.69
2022-11-07T16:32:37.927Z,14.31
2022-11-07T16:35:10.001Z,12.28
2022-11-07T16:37:43.518Z,14.14
2022-11-07T16:40:36.486Z,14.23
2022-11-07T16:43:06.014Z,14.23
2022-11-07T16:45:52.872Z,12.68
2022-11-07T16:48:50.590Z,14.19
2022-11-07T16:51:22.366Z,11.13
2022-11-07T16:53:50.535Z,13.01
2022-11-07T16:56:26.011Z,11.88
2022-11-07T16:58:55.371Z,14.03
2022-11-07T17:01:26.472Z,13.94
2022-11-07T17:03:55.771Z,13.20
2022-11-07T17:06:28.779Z,10.55
2022-11-07T17:09:05.004Z,12.66
2022-11-07T17:11:37.747Z,13.19
2022-11-07T17:17:18.469Z,10.72
2022-11-07T17:20:34.340Z,14.05
2022-11-07T17:23:07.126Z,13.35
2022-11-07T17:26:09.896Z,13.99
2022-11-07T17:28:38.028Z,13.76
2022-11-07T17:31:06.474Z,12.08
2022-11-07T17:33:36.530Z,13.24
2022-11-07T17:36:05.876Z,12.55
2022-11-07T17:38:34.724Z,13.87
2022-11-07T17:44:18.352Z,13.74
2022-11-07T17:46:51.026Z,12.50
2022-11-07T17:52:57.113Z,12.05
2022-11-07T17:56:15.910Z,10.51
2022-11-07T17:58:59.467Z,13.91
2022-11-07T18:01:36.145Z,12.66
2022-11-07T18:04:16.245Z,13.69
2022-11-07T18:06:49.693Z,12.73
2022-11-07T18:09:49.681Z,10.83
2022-11-07T18:12:18.223Z,12.81
2022-11-07T18:14:46.665Z,13.90
2022-11-07T18:17:16.563Z,12.83
2022-11-07T18:20:02.435Z,13.90
2022-11-07T18:22:56.052Z,13.84
2022-11-07T18:33:04.312Z,13.56
2022-11-07T18:35:41.497Z,10.27
2022-11-07T18:38:35.974Z,13.56
2022-11-07T18:41:28.205Z,10.47
2022-11-07T18:44:05.045Z,11.99
2022-11-07T18:49:46.162Z,12.71
2022-11-07T18:52:22.230Z,11.54
2022-11-07T18:54:54.650Z,10.38
2022-11-07T18:57:26.469Z,13.65
2022-11-07T18:59:54.816Z,13.60
2022-11-07T19:02:25.572Z,13.55
2022-11-07T19:04:53.967Z,11.53
2022-11-07T19:07:27.092Z,11.87
2022-11-07T19:09:57.119Z,13.37
2022-11-07T19:12:27.418Z,13.29
2022-11-07T19:14:56.234Z,11.38
2022-11-07T19:17:27.848Z,9.94
2022-11-07T19:20:11.112Z,13.04
2022-11-07T19:22:39.514Z,11.81
2022-11-07T19:25:10.250Z,12.86
2022-11-07T19:27:38.223Z,12.25
2022-11-07T19:30:11.204Z,11.74
2022-11-07T19:35:59.474Z,9.52
2022-11-07T19:45:48.625Z,11.90
2022-11-07T19:48:18.938Z,8.28
2022-11-07T19:50:50.051Z,11.72
2022-11-07T19:53:21.825Z,9.91
2022-11-07T19:55:51.736Z,8.02
2022-11-07T19:58:24.742Z,8.58
2022-11-07T20:01:02.110Z,7.21
2022-11-07T20:03:31.955Z,11.33
2022-11-07T20:09:04.351Z,11.24
2022-11-07T20:11:32.958Z,7.90
2022-11-07T20:14:03.648Z,8.58
2022-11-07T20:16:34.707Z,8.33
2022-11-07T20:19:03.592Z,8.28
2022-11-07T20:21:33.896Z,7.76
2022-11-07T20:24:02.899Z,9.63
2022-11-07T20:26:33.314Z,9.56
2022-11-07T20:29:01.672Z,10.68
2022-11-07T20:31:36.985Z,9.08
2022-11-07T20:34:10.374Z,6.93
2022-11-07T20:36:40.264Z,6.84
2022-11-07T20:39:10.156Z,9.02
2022-11-07T20:41:42.461Z,10.15
2022-11-07T20:44:15.203Z,10.19
2022-11-07T20:46:47.953Z,10.12
2022-11-07T20:49:25.267Z,8.89
2022-11-07T20:51:56.615Z,8.59
2022-11-07T20:54:32.297Z,9.18
2022-11-07T20:57:03.205Z,9.82
2022-11-07T20:59:32.863Z,6.90
2022-11-07T21:02:04.256Z,9.10
2022-11-07T21:05:10.843Z,7.06
2022-11-07T21:07:32.063Z,6.37
2022-11-07T21:10:02.613Z,8.92
2022-11-07T21:12:33.901Z,6.44
2022-11-07T21:15:04.329Z,8.53
2022-11-07T21:17:35.573Z,9.58
2022-11-07T21:20:09.343Z,7.27
2022-11-07T21:22:42.529Z,6.18
2022-11-07T21:25:13.051Z,8.42
2022-11-07T21:27:42.082Z,6.40
2022-11-07T21:30:15.368Z,5.85
2022-11-07T21:32:45.564Z,8.68
2022-11-07T21:35:19.994Z,7.68
2022-11-07T21:37:49.954Z,7.52
2022-11-07T21:40:20.186Z,7.96
2022-11-07T21:42:48.666Z,7.23
2022-11-07T21:45:17.423Z,9.01
2022-11-07T21:47:46.141Z,8.99
2022-11-07T21:50:43.089Z,6.68
2022-11-07T21:53:05.827Z,6.37
2022-11-07T21:55:36.395Z,7.53
2022-11-07T21:58:05.262Z,5.08
2022-11-07T22:00:37.256Z,5.87
2022-11-07T22:03:06.274Z,8.72
2022-11-07T22:05:39.766Z,8.68
2022-11-07T22:08:07.953Z,8.59
2022-11-07T22:10:35.899Z,8.55
2022-11-07T22:13:05.340Z,6.28
2022-11-07T22:15:33.609Z,5.78
2022-11-07T22:18:01.868Z,7.27
2022-11-07T22:20:29.730Z,8.44
2022-11-07T22:22:59.096Z,8.42
2022-11-07T22:25:26.985Z,8.38
2022-11-07T22:27:55.278Z,8.34
2022-11-07T22:30:23.348Z,8.30
2022-11-07T22:32:51.898Z,6.32
2022-11-07T22:35:19.918Z,7.79
2022-11-07T22:37:48.121Z,7.19
2022-11-07T22:40:20.490Z,7.04
2022-11-07T22:42:49.003Z,8.01
2022-11-07T22:45:17.342Z,7.59
2022-11-07T22:47:45.542Z,8.07
2022-11-07T22:50:13.944Z,7.83
2022-11-07T22:52:42.591Z,3.94
2022-11-07T22:55:11.524Z,5.39
2022-11-07T22:57:43.273Z,7.59
2022-11-07T23:00:21.310Z,5.90
2022-11-07T23:02:50.434Z,7.48
2022-11-07T23:05:19.393Z,7.06
2022-11-07T23:07:51.274Z,8.20
2022-11-07T23:10:19.835Z,6.54
2022-11-07T23:12:49.618Z,7.05
2022-11-07T23:15:18.324Z,6.10
2022-11-07T23:17:46.606Z,8.32
2022-11-07T23:20:35.246Z,6.45
2022-11-07T23:23:05.129Z,7.11
2022-11-07T23:25:33.263Z,6.56
2022-11-07T23:28:04.180Z,5.07
2022-11-07T23:30:33.591Z,7.24
2022-11-07T23:33:02.290Z,4.78
2022-11-07T23:35:32.587Z,6.35
2022-11-07T23:38:00.671Z,7.85
2022-11-07T23:40:28.831Z,7.25
2022-11-07T23:42:56.783Z,7.66
2022-11-07T23:45:43.679Z,8.27
2022-11-07T23:48:31.076Z,8.32
2022-11-07T23:51:03.408Z,8.32
2022-11-07T23:53:50.551Z,8.01
2022-11-07T23:56:19.032Z,8.21
2022-11-07T23:59:04.820Z,8.49
